sensor_id;sensor_type;location;lat;lon;timestamp;temperature;humidity
18085;DHT22;9169;44.492;11.372;2023-02-01T00:01:45;10.30;48.50
18085;DHT22;9169;44.492;11.372;2023-02-01T00:04:15;10.30;48.30
18085;DHT22;9169;44.492;11.372;2023-02-01T00:06:44;10.30;48.40
18085;DHT22;9169;44.492;11.372;2023-02-01T00:09:13;10.30;48.00
18085;DHT22;9169;44.492;11.372;2023-02-01T00:11:41;10.30;48.00
18085;DHT22;9169;44.492;11.372;2023-02-01T00:14:10;10.30;47.80
18085;DHT22;9169;44.492;11.372;2023-02-01T00:16:39;10.30;47.30
18085;DHT22;9169;44.492;11.372;2023-02-01T00:19:11;10.20;46.70
18085;DHT22;9169;44.492;11.372;2023-02-01T00:21:42;10.30;46.80
18085;DHT22;9169;44.492;11.372;2023-02-01T00:24:12;10.30;46.50
18085;DHT22;9169;44.492;11.372;2023-02-01T00:26:43;10.30;46.50
18085;DHT22;9169;44.492;11.372;2023-02-01T00:29:14;10.30;46.50
18085;DHT22;9169;44.492;11.372;2023-02-01T00:31:43;10.30;46.60
18085;DHT22;9169;44.492;11.372;2023-02-01T00:34:14;10.30;46.80
18085;DHT22;9169;44.492;11.372;2023-02-01T00:36:45;10.30;46.90
18085;DHT22;9169;44.492;11.372;2023-02-01T00:39:14;10.30;46.80
18085;DHT22;9169;44.492;11.372;2023-02-01T00:41:42;10.30;46.60
18085;DHT22;9169;44.492;11.372;2023-02-01T00:44:11;10.30;46.60
18085;DHT22;9169;44.492;11.372;2023-02-01T00:46:39;10.30;46.50
18085;DHT22;9169;44.492;11.372;2023-02-01T00:49:08;10.30;46.50
18085;DHT22;9169;44.492;11.372;2023-02-01T00:51:36;10.30;46.40
18085;DHT22;9169;44.492;11.372;2023-02-01T00:54:06;10.30;46.40
18085;DHT22;9169;44.492;11.372;2023-02-01T00:56:35;10.30;46.90
18085;DHT22;9169;44.492;11.372;2023-02-01T00:59:03;10.30;46.40
18085;DHT22;9169;44.492;11.372;2023-02-01T01:01:32;10.20;46.20
18085;DHT22;9169;44.492;11.372;2023-02-01T01:04:00;10.20;46.20
18085;DHT22;9169;44.492;11.372;2023-02-01T01:06:31;10.20;46.00
18085;DHT22;9169;44.492;11.372;2023-02-01T01:09:02;10.20;46.10
18085;DHT22;9169;44.492;11.372;2023-02-01T01:11:35;10.20;46.10
18085;DHT22;9169;44.492;11.372;2023-02-01T01:14:06;10.20;46.20
18085;DHT22;9169;44.492;11.372;2023-02-01T01:16:35;10.20;46.10
18085;DHT22;9169;44.492;11.372;2023-02-01T01:19:04;10.20;46.00
18085;DHT22;9169;44.492;11.372;2023-02-01T01:21:32;10.10;45.90
18085;DHT22;9169;44.492;11.372;2023-02-01T01:24:01;10.10;45.90
18085;DHT22;9169;44.492;11.372;2023-02-01T01:26:33;10.10;45.90
18085;DHT22;9169;44.492;11.372;2023-02-01T01:29:02;10.00;45.80
18085;DHT22;9169;44.492;11.372;2023-02-01T01:31:31;10.00;45.90
18085;DHT22;9169;44.492;11.372;2023-02-01T01:34:00;10.00;46.00
18085;DHT22;9169;44.492;11.372;2023-02-01T01:36:29;10.00;46.10
18085;DHT22;9169;44.492;11.372;2023-02-01T01:38:58;9.90;46.90
18085;DHT22;9169;44.492;11.372;2023-02-01T01:41:30;9.90;47.00
18085;DHT22;9169;44.492;11.372;2023-02-01T01:47:20;9.90;47.10
18085;DHT22;9169;44.492;11.372;2023-02-01T01:49:49;9.90;47.20
18085;DHT22;9169;44.492;11.372;2023-02-01T01:52:19;9.90;47.20
18085;DHT22;9169;44.492;11.372;2023-02-01T01:54:49;9.80;47.20
18085;DHT22;9169;44.492;11.372;2023-02-01T01:57:24;9.80;47.20
18085;DHT22;9169;44.492;11.372;2023-02-01T01:59:58;9.80;47.20
18085;DHT22;9169;44.492;11.372;2023-02-01T02:02:42;9.80;47.20
18085;DHT22;9169;44.492;11.372;2023-02-01T02:05:12;9.80;47.20
18085;DHT22;9169;44.492;11.372;2023-02-01T02:07:45;9.80;47.10
18085;DHT22;9169;44.492;11.372;2023-02-01T02:10:15;9.80;47.20
18085;DHT22;9169;44.492;11.372;2023-02-01T02:12:46;9.80;47.10
18085;DHT22;9169;44.492;11.372;2023-02-01T02:15:16;9.80;47.00
18085;DHT22;9169;44.492;11.372;2023-02-01T02:17:57;9.80;47.00
18085;DHT22;9169;44.492;11.372;2023-02-01T02:20:39;9.80;47.00
18085;DHT22;9169;44.492;11.372;2023-02-01T02:23:37;9.80;47.10
18085;DHT22;9169;44.492;11.372;2023-02-01T02:26:45;9.80;46.90
18085;DHT22;9169;44.492;11.372;2023-02-01T02:32:43;9.80;46.70
18085;DHT22;9169;44.492;11.372;2023-02-01T02:35:17;9.80;46.70
18085;DHT22;9169;44.492;11.372;2023-02-01T02:37:54;9.70;46.60
18085;DHT22;9169;44.492;11.372;2023-02-01T02:40:30;9.70;46.60
18085;DHT22;9169;44.492;11.372;2023-02-01T02:43:05;9.70;46.70
18085;DHT22;9169;44.492;11.372;2023-02-01T02:46:01;9.70;46.60
18085;DHT22;9169;44.492;11.372;2023-02-01T02:49:02;9.70;46.60
18085;DHT22;9169;44.492;11.372;2023-02-01T02:51:37;9.70;46.50
18085;DHT22;9169;44.492;11.372;2023-02-01T02:54:30;9.70;46.40
18085;DHT22;9169;44.492;11.372;2023-02-01T02:57:21;9.70;46.40
18085;DHT22;9169;44.492;11.372;2023-02-01T03:00:11;9.70;46.50
18085;DHT22;9169;44.492;11.372;2023-02-01T03:02:58;9.70;46.60
18085;DHT22;9169;44.492;11.372;2023-02-01T03:05:46;9.70;46.60
18085;DHT22;9169;44.492;11.372;2023-02-01T03:08:21;9.70;46.60
18085;DHT22;9169;44.492;11.372;2023-02-01T03:10:54;9.70;46.60
18085;DHT22;9169;44.492;11.372;2023-02-01T03:13:33;9.70;46.60
18085;DHT22;9169;44.492;11.372;2023-02-01T03:16:08;9.60;46.50
18085;DHT22;9169;44.492;11.372;2023-02-01T03:18:46;9.60;46.60
18085;DHT22;9169;44.492;11.372;2023-02-01T03:21:21;9.60;46.60
18085;DHT22;9169;44.492;11.372;2023-02-01T03:23:56;9.70;46.70
18085;DHT22;9169;44.492;11.372;2023-02-01T03:26:26;9.60;46.70
18085;DHT22;9169;44.492;11.372;2023-02-01T03:29:03;9.60;46.70
18085;DHT22;9169;44.492;11.372;2023-02-01T03:31:33;9.60;46.70
18085;DHT22;9169;44.492;11.372;2023-02-01T03:34:02;9.60;46.80
18085;DHT22;9169;44.492;11.372;2023-02-01T03:36:35;9.60;46.90
18085;DHT22;9169;44.492;11.372;2023-02-01T03:39:14;9.60;47.00
18085;DHT22;9169;44.492;11.372;2023-02-01T03:41:46;9.60;47.10
18085;DHT22;9169;44.492;11.372;2023-02-01T03:44:20;9.60;47.20
18085;DHT22;9169;44.492;11.372;2023-02-01T03:46:54;9.60;47.20
18085;DHT22;9169;44.492;11.372;2023-02-01T03:49:26;9.50;47.80
18085;DHT22;9169;44.492;11.372;2023-02-01T03:51:58;9.60;47.40
18085;DHT22;9169;44.492;11.372;2023-02-01T03:54:29;9.60;47.50
18085;DHT22;9169;44.492;11.372;2023-02-01T03:57:01;9.50;47.50
18085;DHT22;9169;44.492;11.372;2023-02-01T03:59:31;9.50;47.60
18085;DHT22;9169;44.492;11.372;2023-02-01T04:02:00;9.50;47.60
18085;DHT22;9169;44.492;11.372;2023-02-01T04:04:28;9.50;47.70
18085;DHT22;9169;44.492;11.372;2023-02-01T04:06:57;9.50;47.80
18085;DHT22;9169;44.492;11.372;2023-02-01T04:09:25;9.50;47.80
18085;DHT22;9169;44.492;11.372;2023-02-01T04:11:55;9.50;47.80
18085;DHT22;9169;44.492;11.372;2023-02-01T04:14:24;9.50;47.90
18085;DHT22;9169;44.492;11.372;2023-02-01T04:16:52;9.40;47.90
18085;DHT22;9169;44.492;11.372;2023-02-01T04:19:21;9.40;47.90
18085;DHT22;9169;44.492;11.372;2023-02-01T04:21:50;9.40;48.00
18085;DHT22;9169;44.492;11.372;2023-02-01T04:24:18;9.40;48.00
18085;DHT22;9169;44.492;11.372;2023-02-01T04:26:47;9.30;48.00
18085;DHT22;9169;44.492;11.372;2023-02-01T04:29:17;9.30;48.10
18085;DHT22;9169;44.492;11.372;2023-02-01T04:31:45;9.30;48.20
18085;DHT22;9169;44.492;11.372;2023-02-01T04:34:14;9.30;48.30
18085;DHT22;9169;44.492;11.372;2023-02-01T04:36:43;9.30;48.40
18085;DHT22;9169;44.492;11.372;2023-02-01T04:39:13;9.30;48.50
18085;DHT22;9169;44.492;11.372;2023-02-01T04:41:41;9.30;48.60
18085;DHT22;9169;44.492;11.372;2023-02-01T04:44:13;9.30;48.70
18085;DHT22;9169;44.492;11.372;2023-02-01T04:46:45;9.30;48.80
18085;DHT22;9169;44.492;11.372;2023-02-01T04:49:14;9.30;48.80
18085;DHT22;9169;44.492;11.372;2023-02-01T04:51:43;9.30;49.00
18085;DHT22;9169;44.492;11.372;2023-02-01T04:54:12;9.30;49.00
18085;DHT22;9169;44.492;11.372;2023-02-01T04:56:41;9.30;49.10
18085;DHT22;9169;44.492;11.372;2023-02-01T04:59:10;9.30;49.20
18085;DHT22;9169;44.492;11.372;2023-02-01T05:01:39;9.30;49.20
18085;DHT22;9169;44.492;11.372;2023-02-01T05:04:09;9.30;49.20
18085;DHT22;9169;44.492;11.372;2023-02-01T05:06:38;9.30;49.20
18085;DHT22;9169;44.492;11.372;2023-02-01T05:09:06;9.30;49.20
18085;DHT22;9169;44.492;11.372;2023-02-01T05:11:35;9.30;49.30
18085;DHT22;9169;44.492;11.372;2023-02-01T05:14:21;9.40;49.40
18085;DHT22;9169;44.492;11.372;2023-02-01T05:16:49;9.30;49.40
18085;DHT22;9169;44.492;11.372;2023-02-01T05:19:19;9.30;49.40
18085;DHT22;9169;44.492;11.372;2023-02-01T05:21:48;9.30;49.40
18085;DHT22;9169;44.492;11.372;2023-02-01T05:24:16;9.30;49.50
18085;DHT22;9169;44.492;11.372;2023-02-01T05:26:48;9.30;49.60
18085;DHT22;9169;44.492;11.372;2023-02-01T05:29:17;9.30;49.70
18085;DHT22;9169;44.492;11.372;2023-02-01T05:31:46;9.20;49.70
18085;DHT22;9169;44.492;11.372;2023-02-01T05:34:15;9.20;49.70
18085;DHT22;9169;44.492;11.372;2023-02-01T05:36:45;9.20;49.70
18085;DHT22;9169;44.492;11.372;2023-02-01T05:39:14;9.20;49.70
18085;DHT22;9169;44.492;11.372;2023-02-01T05:41:42;9.20;49.70
18085;DHT22;9169;44.492;11.372;2023-02-01T05:44:11;9.20;49.80
18085;DHT22;9169;44.492;11.372;2023-02-01T05:46:40;9.20;49.80
18085;DHT22;9169;44.492;11.372;2023-02-01T05:49:08;9.20;49.90
18085;DHT22;9169;44.492;11.372;2023-02-01T05:51:37;9.20;50.00
18085;DHT22;9169;44.492;11.372;2023-02-01T05:54:08;9.20;50.00
18085;DHT22;9169;44.492;11.372;2023-02-01T05:56:37;9.20;50.10
18085;DHT22;9169;44.492;11.372;2023-02-01T05:59:05;9.20;50.20
18085;DHT22;9169;44.492;11.372;2023-02-01T06:01:34;9.10;50.10
18085;DHT22;9169;44.492;11.372;2023-02-01T06:04:03;9.10;50.10
18085;DHT22;9169;44.492;11.372;2023-02-01T06:06:31;9.10;50.20
18085;DHT22;9169;44.492;11.372;2023-02-01T06:09:00;9.10;50.30
18085;DHT22;9169;44.492;11.372;2023-02-01T06:11:30;9.10;50.40
18085;DHT22;9169;44.492;11.372;2023-02-01T06:13:59;9.10;50.40
18085;DHT22;9169;44.492;11.372;2023-02-01T06:16:28;9.00;50.40
18085;DHT22;9169;44.492;11.372;2023-02-01T06:18:57;9.00;50.50
18085;DHT22;9169;44.492;11.372;2023-02-01T06:21:25;9.00;50.50
18085;DHT22;9169;44.492;11.372;2023-02-01T06:23:54;9.00;50.50
18085;DHT22;9169;44.492;11.372;2023-02-01T06:26:24;9.00;50.50
18085;DHT22;9169;44.492;11.372;2023-02-01T06:28:55;9.00;50.50
18085;DHT22;9169;44.492;11.372;2023-02-01T06:31:23;9.00;50.50
18085;DHT22;9169;44.492;11.372;2023-02-01T06:33:53;9.10;50.70
18085;DHT22;9169;44.492;11.372;2023-02-01T06:36:21;9.10;50.60
18085;DHT22;9169;44.492;11.372;2023-02-01T06:38:50;9.10;50.60
18085;DHT22;9169;44.492;11.372;2023-02-01T06:41:19;9.10;50.70
18085;DHT22;9169;44.492;11.372;2023-02-01T06:43:48;9.20;50.70
18085;DHT22;9169;44.492;11.372;2023-02-01T06:46:18;9.20;50.80
18085;DHT22;9169;44.492;11.372;2023-02-01T06:48:47;9.20;50.80
18085;DHT22;9169;44.492;11.372;2023-02-01T06:51:21;9.30;50.90
18085;DHT22;9169;44.492;11.372;2023-02-01T06:53:50;9.30;50.90
18085;DHT22;9169;44.492;11.372;2023-02-01T06:56:19;9.30;50.90
18085;DHT22;9169;44.492;11.372;2023-02-01T06:58:48;9.30;50.90
18085;DHT22;9169;44.492;11.372;2023-02-01T07:01:19;9.40;51.00
18085;DHT22;9169;44.492;11.372;2023-02-01T07:03:48;9.40;51.10
18085;DHT22;9169;44.492;11.372;2023-02-01T07:06:18;9.40;51.10
18085;DHT22;9169;44.492;11.372;2023-02-01T07:08:47;9.40;51.00
18085;DHT22;9169;44.492;11.372;2023-02-01T07:11:19;9.50;51.10
18085;DHT22;9169;44.492;11.372;2023-02-01T07:13:48;9.50;51.20
18085;DHT22;9169;44.492;11.372;2023-02-01T07:16:18;9.50;51.60
18085;DHT22;9169;44.492;11.372;2023-02-01T07:18:49;9.50;51.10
18085;DHT22;9169;44.492;11.372;2023-02-01T07:21:18;9.60;51.10
18085;DHT22;9169;44.492;11.372;2023-02-01T07:23:46;9.60;51.10
18085;DHT22;9169;44.492;11.372;2023-02-01T07:26:15;9.60;51.10
18085;DHT22;9169;44.492;11.372;2023-02-01T07:28:44;9.60;51.20
18085;DHT22;9169;44.492;11.372;2023-02-01T07:31:15;9.70;51.30
18085;DHT22;9169;44.492;11.372;2023-02-01T07:33:47;9.70;51.30
18085;DHT22;9169;44.492;11.372;2023-02-01T07:36:21;9.70;51.30
18085;DHT22;9169;44.492;11.372;2023-02-01T07:38:50;9.70;51.20
18085;DHT22;9169;44.492;11.372;2023-02-01T07:41:22;9.80;51.30
18085;DHT22;9169;44.492;11.372;2023-02-01T07:43:52;9.80;51.30
18085;DHT22;9169;44.492;11.372;2023-02-01T07:46:21;9.80;51.30
18085;DHT22;9169;44.492;11.372;2023-02-01T07:48:51;9.80;51.30
18085;DHT22;9169;44.492;11.372;2023-02-01T07:51:20;9.90;51.40
18085;DHT22;9169;44.492;11.372;2023-02-01T07:53:48;9.90;51.30
18085;DHT22;9169;44.492;11.372;2023-02-01T07:56:19;10.00;50.50
18085;DHT22;9169;44.492;11.372;2023-02-01T07:58:50;10.00;50.50
18085;DHT22;9169;44.492;11.372;2023-02-01T08:01:20;10.00;50.50
18085;DHT22;9169;44.492;11.372;2023-02-01T08:03:54;10.10;50.60
18085;DHT22;9169;44.492;11.372;2023-02-01T08:06:23;10.20;50.70
18085;DHT22;9169;44.492;11.372;2023-02-01T08:08:53;10.20;50.70
18085;DHT22;9169;44.492;11.372;2023-02-01T08:11:23;10.30;50.80
18085;DHT22;9169;44.492;11.372;2023-02-01T08:13:52;10.30;50.80
18085;DHT22;9169;44.492;11.372;2023-02-01T08:16:22;10.30;50.90
18085;DHT22;9169;44.492;11.372;2023-02-01T08:18:52;10.40;51.00
18085;DHT22;9169;44.492;11.372;2023-02-01T08:21:23;10.50;51.20
18085;DHT22;9169;44.492;11.372;2023-02-01T08:23:53;10.50;51.20
18085;DHT22;9169;44.492;11.372;2023-02-01T08:26:24;10.60;51.40
18085;DHT22;9169;44.492;11.372;2023-02-01T08:28:55;10.70;51.50
18085;DHT22;9169;44.492;11.372;2023-02-01T08:31:26;10.90;51.80
18085;DHT22;9169;44.492;11.372;2023-02-01T08:34:00;11.00;52.20
18085;DHT22;9169;44.492;11.372;2023-02-01T08:36:31;11.20;53.00
18085;DHT22;9169;44.492;11.372;2023-02-01T08:39:00;11.40;53.10
18085;DHT22;9169;44.492;11.372;2023-02-01T08:41:30;11.60;53.50
18085;DHT22;9169;44.492;11.372;2023-02-01T08:43:58;11.80;54.00
18085;DHT22;9169;44.492;11.372;2023-02-01T08:46:27;12.00;54.00
18085;DHT22;9169;44.492;11.372;2023-02-01T08:48:57;12.20;54.10
18085;DHT22;9169;44.492;11.372;2023-02-01T08:51:26;12.40;54.20
18085;DHT22;9169;44.492;11.372;2023-02-01T08:53:57;12.60;54.30
18085;DHT22;9169;44.492;11.372;2023-02-01T08:56:26;12.80;54.40
18085;DHT22;9169;44.492;11.372;2023-02-01T08:58:54;13.00;53.80
18085;DHT22;9169;44.492;11.372;2023-02-01T09:01:23;13.10;53.10
18085;DHT22;9169;44.492;11.372;2023-02-01T09:03:52;13.20;52.60
18085;DHT22;9169;44.492;11.372;2023-02-01T09:06:22;13.20;52.10
18085;DHT22;9169;44.492;11.372;2023-02-01T09:08:51;13.30;51.70
18085;DHT22;9169;44.492;11.372;2023-02-01T09:11:20;13.30;51.30
18085;DHT22;9169;44.492;11.372;2023-02-01T09:13:48;13.30;51.40
18085;DHT22;9169;44.492;11.372;2023-02-01T09:16:17;13.30;51.30
18085;DHT22;9169;44.492;11.372;2023-02-01T09:18:46;13.20;51.30
18085;DHT22;9169;44.492;11.372;2023-02-01T09:21:22;13.20;50.70
18085;DHT22;9169;44.492;11.372;2023-02-01T09:23:51;13.10;50.70
18085;DHT22;9169;44.492;11.372;2023-02-01T09:26:20;13.10;50.50
18085;DHT22;9169;44.492;11.372;2023-02-01T09:28:57;13.10;50.30
18085;DHT22;9169;44.492;11.372;2023-02-01T09:31:26;13.00;50.20
18085;DHT22;9169;44.492;11.372;2023-02-01T09:33:54;13.00;50.20
18085;DHT22;9169;44.492;11.372;2023-02-01T09:36:24;12.90;50.00
18085;DHT22;9169;44.492;11.372;2023-02-01T09:38:55;12.80;49.70
18085;DHT22;9169;44.492;11.372;2023-02-01T09:41:32;12.80;49.80
18085;DHT22;9169;44.492;11.372;2023-02-01T09:44:11;12.70;49.70
18085;DHT22;9169;44.492;11.372;2023-02-01T09:46:42;12.60;49.60
18085;DHT22;9169;44.492;11.372;2023-02-01T09:49:15;12.50;49.50
18085;DHT22;9169;44.492;11.372;2023-02-01T09:51:49;12.40;49.30
18085;DHT22;9169;44.492;11.372;2023-02-01T09:54:20;12.30;49.20
18085;DHT22;9169;44.492;11.372;2023-02-01T09:56:53;12.20;49.20
18085;DHT22;9169;44.492;11.372;2023-02-01T09:59:37;12.20;49.20
18085;DHT22;9169;44.492;11.372;2023-02-01T10:02:13;12.10;49.20
18085;DHT22;9169;44.492;11.372;2023-02-01T10:04:43;12.10;49.20
18085;DHT22;9169;44.492;11.372;2023-02-01T10:07:24;12.10;49.30
18085;DHT22;9169;44.492;11.372;2023-02-01T10:10:00;12.10;49.30
18085;DHT22;9169;44.492;11.372;2023-02-01T10:12:44;12.10;49.40
18085;DHT22;9169;44.492;11.372;2023-02-01T10:15:35;12.10;49.50
18085;DHT22;9169;44.492;11.372;2023-02-01T10:18:22;12.10;49.60
18085;DHT22;9169;44.492;11.372;2023-02-01T10:20:57;12.10;49.50
18085;DHT22;9169;44.492;11.372;2023-02-01T10:23:49;12.10;49.50
18085;DHT22;9169;44.492;11.372;2023-02-01T10:26:22;12.10;49.60
18085;DHT22;9169;44.492;11.372;2023-02-01T10:28:53;12.10;49.70
18085;DHT22;9169;44.492;11.372;2023-02-01T10:31:24;12.10;49.70
18085;DHT22;9169;44.492;11.372;2023-02-01T10:33:57;12.00;49.70
18085;DHT22;9169;44.492;11.372;2023-02-01T10:36:29;12.00;49.80
18085;DHT22;9169;44.492;11.372;2023-02-01T10:39:02;12.00;49.90
18085;DHT22;9169;44.492;11.372;2023-02-01T10:41:33;12.00;49.90
18085;DHT22;9169;44.492;11.372;2023-02-01T10:44:07;12.00;49.90
18085;DHT22;9169;44.492;11.372;2023-02-01T10:46:38;12.00;50.00
18085;DHT22;9169;44.492;11.372;2023-02-01T10:49:13;12.10;50.20
18085;DHT22;9169;44.492;11.372;2023-02-01T10:51:48;12.10;50.20
18085;DHT22;9169;44.492;11.372;2023-02-01T10:54:22;12.10;50.20
18085;DHT22;9169;44.492;11.372;2023-02-01T10:56:59;12.20;50.30
18085;DHT22;9169;44.492;11.372;2023-02-01T10:59:29;12.20;50.30
18085;DHT22;9169;44.492;11.372;2023-02-01T11:02:01;12.30;50.20
18085;DHT22;9169;44.492;11.372;2023-02-01T11:04:33;12.30;50.20
18085;DHT22;9169;44.492;11.372;2023-02-01T11:07:07;12.30;50.20
18085;DHT22;9169;44.492;11.372;2023-02-01T11:09:41;12.30;50.10
18085;DHT22;9169;44.492;11.372;2023-02-01T11:12:25;12.30;49.90
18085;DHT22;9169;44.492;11.372;2023-02-01T11:15:02;12.40;50.00
18085;DHT22;9169;44.492;11.372;2023-02-01T11:17:34;12.40;49.90
18085;DHT22;9169;44.492;11.372;2023-02-01T11:20:09;12.50;49.90
18085;DHT22;9169;44.492;11.372;2023-02-01T11:22:46;12.50;49.90
18085;DHT22;9169;44.492;11.372;2023-02-01T11:25:17;12.50;49.70
18085;DHT22;9169;44.492;11.372;2023-02-01T11:27:47;12.50;49.70
18085;DHT22;9169;44.492;11.372;2023-02-01T11:30:30;12.60;49.60
18085;DHT22;9169;44.492;11.372;2023-02-01T11:33:01;12.60;49.60
18085;DHT22;9169;44.492;11.372;2023-02-01T11:35:32;12.70;49.50
18085;DHT22;9169;44.492;11.372;2023-02-01T11:38:11;12.70;49.40
18085;DHT22;9169;44.492;11.372;2023-02-01T11:40:42;12.70;49.40
18085;DHT22;9169;44.492;11.372;2023-02-01T11:43:15;12.80;49.30
18085;DHT22;9169;44.492;11.372;2023-02-01T11:45:55;12.80;49.10
18085;DHT22;9169;44.492;11.372;2023-02-01T11:48:25;12.80;49.00
18085;DHT22;9169;44.492;11.372;2023-02-01T11:51:12;12.90;49.20
18085;DHT22;9169;44.492;11.372;2023-02-01T11:54:03;12.90;48.80
18085;DHT22;9169;44.492;11.372;2023-02-01T11:56:42;12.90;48.80
18085;DHT22;9169;44.492;11.372;2023-02-01T11:59:25;13.00;48.90
18085;DHT22;9169;44.492;11.372;2023-02-01T12:05:14;13.10;49.20
18085;DHT22;9169;44.492;11.372;2023-02-01T12:07:59;13.10;49.30
18085;DHT22;9169;44.492;11.372;2023-02-01T12:10:41;13.10;49.40
18085;DHT22;9169;44.492;11.372;2023-02-01T12:13:25;13.20;49.50
18085;DHT22;9169;44.492;11.372;2023-02-01T12:16:02;13.20;49.70
18085;DHT22;9169;44.492;11.372;2023-02-01T12:18:59;13.30;49.70
18085;DHT22;9169;44.492;11.372;2023-02-01T12:21:42;13.30;49.80
18085;DHT22;9169;44.492;11.372;2023-02-01T12:24:40;13.40;49.70
18085;DHT22;9169;44.492;11.372;2023-02-01T12:27:31;13.40;49.70
18085;DHT22;9169;44.492;11.372;2023-02-01T12:30:28;13.40;49.90
18085;DHT22;9169;44.492;11.372;2023-02-01T12:33:06;13.50;50.70
18085;DHT22;9169;44.492;11.372;2023-02-01T12:35:48;13.50;50.20
18085;DHT22;9169;44.492;11.372;2023-02-01T12:38:32;13.50;50.20
18085;DHT22;9169;44.492;11.372;2023-02-01T12:41:14;13.60;50.20
18085;DHT22;9169;44.492;11.372;2023-02-01T12:43:47;13.60;50.20
18085;DHT22;9169;44.492;11.372;2023-02-01T12:46:22;13.60;50.00
18085;DHT22;9169;44.492;11.372;2023-02-01T12:48:57;13.70;50.00
18085;DHT22;9169;44.492;11.372;2023-02-01T12:51:29;13.70;49.70
18085;DHT22;9169;44.492;11.372;2023-02-01T12:54:03;13.70;49.70
18085;DHT22;9169;44.492;11.372;2023-02-01T12:56:42;13.80;49.70
18085;DHT22;9169;44.492;11.372;2023-02-01T12:59:20;13.80;49.70
18085;DHT22;9169;44.492;11.372;2023-02-01T13:01:54;13.80;49.60
18085;DHT22;9169;44.492;11.372;2023-02-01T13:04:30;13.80;49.80
18085;DHT22;9169;44.492;11.372;2023-02-01T13:07:07;13.90;49.70
18085;DHT22;9169;44.492;11.372;2023-02-01T13:09:40;13.90;49.70
18085;DHT22;9169;44.492;11.372;2023-02-01T13:12:15;13.90;49.60
18085;DHT22;9169;44.492;11.372;2023-02-01T13:14:48;14.00;49.60
18085;DHT22;9169;44.492;11.372;2023-02-01T13:17:22;14.00;49.70
18085;DHT22;9169;44.492;11.372;2023-02-01T13:19:59;14.10;49.60
18085;DHT22;9169;44.492;11.372;2023-02-01T13:22:33;14.10;49.50
18085;DHT22;9169;44.492;11.372;2023-02-01T13:25:05;14.10;49.30
18085;DHT22;9169;44.492;11.372;2023-02-01T13:27:39;14.10;49.30
18085;DHT22;9169;44.492;11.372;2023-02-01T13:30:18;14.20;49.10
18085;DHT22;9169;44.492;11.372;2023-02-01T13:33:22;14.20;48.80
18085;DHT22;9169;44.492;11.372;2023-02-01T13:36:17;14.20;49.10
18085;DHT22;9169;44.492;11.372;2023-02-01T13:42:02;14.30;49.10
18085;DHT22;9169;44.492;11.372;2023-02-01T13:44:34;14.30;49.40
18085;DHT22;9169;44.492;11.372;2023-02-01T13:47:16;14.40;49.30
18085;DHT22;9169;44.492;11.372;2023-02-01T13:49:48;14.40;49.70
18085;DHT22;9169;44.492;11.372;2023-02-01T13:52:26;14.70;53.20
18085;DHT22;9169;44.492;11.372;2023-02-01T13:55:14;15.40;56.00
18085;DHT22;9169;44.492;11.372;2023-02-01T13:57:43;16.30;57.10
18085;DHT22;9169;44.492;11.372;2023-02-01T14:00:27;17.40;59.10
18085;DHT22;9169;44.492;11.372;2023-02-01T14:06:16;19.40;54.50
18085;DHT22;9169;44.492;11.372;2023-02-01T14:11:39;21.20;55.40
18085;DHT22;9169;44.492;11.372;2023-02-01T14:17:33;22.80;50.50
18085;DHT22;9169;44.492;11.372;2023-02-01T14:23:29;23.40;46.00
18085;DHT22;9169;44.492;11.372;2023-02-01T14:26:07;23.40;46.70
18085;DHT22;9169;44.492;11.372;2023-02-01T14:28:41;23.40;45.50
18085;DHT22;9169;44.492;11.372;2023-02-01T14:31:18;23.40;45.10
18085;DHT22;9169;44.492;11.372;2023-02-01T14:33:56;23.50;43.90
18085;DHT22;9169;44.492;11.372;2023-02-01T14:36:41;23.40;43.70
18085;DHT22;9169;44.492;11.372;2023-02-01T14:39:32;23.20;42.40
18085;DHT22;9169;44.492;11.372;2023-02-01T14:42:05;22.90;41.90
18085;DHT22;9169;44.492;11.372;2023-02-01T14:44:36;22.70;42.50
18085;DHT22;9169;44.492;11.372;2023-02-01T14:50:25;22.40;41.80
18085;DHT22;9169;44.492;11.372;2023-02-01T14:53:13;22.10;41.10
18085;DHT22;9169;44.492;11.372;2023-02-01T14:55:47;21.80;40.80
18085;DHT22;9169;44.492;11.372;2023-02-01T14:58:29;21.50;41.10
18085;DHT22;9169;44.492;11.372;2023-02-01T15:01:03;21.20;40.80
18085;DHT22;9169;44.492;11.372;2023-02-01T15:03:43;20.80;40.70
18085;DHT22;9169;44.492;11.372;2023-02-01T15:06:26;20.50;40.80
18085;DHT22;9169;44.492;11.372;2023-02-01T15:08:58;20.10;40.80
18085;DHT22;9169;44.492;11.372;2023-02-01T15:11:29;19.80;40.90
18085;DHT22;9169;44.492;11.372;2023-02-01T15:13:58;19.50;41.10
18085;DHT22;9169;44.492;11.372;2023-02-01T15:16:27;19.30;41.30
18085;DHT22;9169;44.492;11.372;2023-02-01T15:19:12;19.00;41.30
18085;DHT22;9169;44.492;11.372;2023-02-01T15:21:47;18.80;41.20
18085;DHT22;9169;44.492;11.372;2023-02-01T15:24:20;18.60;41.60
18085;DHT22;9169;44.492;11.372;2023-02-01T15:26:52;18.40;41.70
18085;DHT22;9169;44.492;11.372;2023-02-01T15:29:22;18.20;41.90
18085;DHT22;9169;44.492;11.372;2023-02-01T15:31:55;18.10;42.10
18085;DHT22;9169;44.492;11.372;2023-02-01T15:34:23;17.80;42.10
18085;DHT22;9169;44.492;11.372;2023-02-01T15:37:13;17.70;42.30
18085;DHT22;9169;44.492;11.372;2023-02-01T15:40:04;17.50;42.50
18085;DHT22;9169;44.492;11.372;2023-02-01T15:42:37;17.40;42.70
18085;DHT22;9169;44.492;11.372;2023-02-01T15:45:16;17.30;42.90
18085;DHT22;9169;44.492;11.372;2023-02-01T15:47:47;17.10;43.00
18085;DHT22;9169;44.492;11.372;2023-02-01T15:50:17;17.00;43.20
18085;DHT22;9169;44.492;11.372;2023-02-01T15:52:49;16.90;43.40
18085;DHT22;9169;44.492;11.372;2023-02-01T15:55:22;16.70;43.50
18085;DHT22;9169;44.492;11.372;2023-02-01T15:57:54;16.60;43.70
18085;DHT22;9169;44.492;11.372;2023-02-01T16:00:24;16.50;43.80
18085;DHT22;9169;44.492;11.372;2023-02-01T16:02:56;16.40;44.00
18085;DHT22;9169;44.492;11.372;2023-02-01T16:05:36;16.30;44.20
18085;DHT22;9169;44.492;11.372;2023-02-01T16:08:10;16.20;44.30
18085;DHT22;9169;44.492;11.372;2023-02-01T16:10:44;16.10;44.50
18085;DHT22;9169;44.492;11.372;2023-02-01T16:13:18;16.00;45.20
18085;DHT22;9169;44.492;11.372;2023-02-01T16:15:48;15.90;44.80
18085;DHT22;9169;44.492;11.372;2023-02-01T16:18:17;15.80;45.00
18085;DHT22;9169;44.492;11.372;2023-02-01T16:20:47;15.70;45.10
18085;DHT22;9169;44.492;11.372;2023-02-01T16:23:16;15.70;45.30
18085;DHT22;9169;44.492;11.372;2023-02-01T16:25:50;15.60;45.40
18085;DHT22;9169;44.492;11.372;2023-02-01T16:28:20;15.50;45.40
18085;DHT22;9169;44.492;11.372;2023-02-01T16:30:49;15.40;45.50
18085;DHT22;9169;44.492;11.372;2023-02-01T16:33:19;15.30;45.70
18085;DHT22;9169;44.492;11.372;2023-02-01T16:35:50;15.30;45.80
18085;DHT22;9169;44.492;11.372;2023-02-01T16:38:20;15.20;45.90
18085;DHT22;9169;44.492;11.372;2023-02-01T16:40:50;15.10;46.00
18085;DHT22;9169;44.492;11.372;2023-02-01T16:43:21;15.00;46.10
18085;DHT22;9169;44.492;11.372;2023-02-01T16:45:54;15.00;46.20